createdAt,value
2022-10-22T00:00:45.558Z,0.77
2022-10-22T00:03:47.527Z,0.80
2022-10-22T00:06:49.400Z,0.82
2022-10-22T00:09:51.511Z,0.86
2022-10-22T00:12:53.454Z,0.83
2022-10-22T00:15:55.191Z,0.79
2022-10-22T00:18:58.105Z,0.75
2022-10-22T00:22:00.119Z,0.73
2022-10-22T00:25:01.980Z,0.74
2022-10-22T00:28:04.129Z,0.77
2022-10-22T00:31:06.754Z,0.79
2022-10-22T00:34:08.664Z,0.79
2022-10-22T00:37:10.487Z,0.82
2022-10-22T00:40:12.845Z,0.86
2022-10-22T00:43:17.302Z,0.84
2022-10-22T00:46:19.057Z,0.86
2022-10-22T00:49:20.927Z,0.86
2022-10-22T00:52:23.017Z,0.87
2022-10-22T00:55:27.367Z,0.90
2022-10-22T00:58:33.680Z,0.91
2022-10-22T01:01:35.447Z,0.91
2022-10-22T01:04:37.433Z,0.91
2022-10-22T01:07:53.071Z,0.90
2022-10-22T01:10:59.080Z,0.89
2022-10-22T01:14:29.618Z,0.94
2022-10-22T01:17:46.531Z,0.97
2022-10-22T01:21:22.445Z,0.99
2022-10-22T01:24:42.495Z,1.04
2022-10-22T01:27:47.109Z,1.04
2022-10-22T01:30:53.344Z,1.10
2022-10-22T01:33:55.536Z,1.13
2022-10-22T01:36:59.074Z,1.19
2022-10-22T01:40:02.466Z,1.24
2022-10-22T01:43:07.875Z,1.25
2022-10-22T01:46:11.583Z,1.25
2022-10-22T01:49:27.868Z,1.32
2022-10-22T01:52:48.376Z,1.37
2022-10-22T01:56:11.756Z,1.41
2022-10-22T01:59:46.081Z,1.45
2022-10-22T02:03:18.614Z,1.49
2022-10-22T02:06:25.399Z,1.51
2022-10-22T02:09:30.222Z,1.55
2022-10-22T02:12:33.823Z,1.56
2022-10-22T02:15:38.475Z,1.56
2022-10-22T02:18:43.844Z,1.55
2022-10-22T02:21:46.008Z,1.57
2022-10-22T02:24:49.260Z,1.58
2022-10-22T02:28:09.074Z,1.60
2022-10-22T02:31:19.129Z,1.63
2022-10-22T02:34:26.118Z,1.68
2022-10-22T02:37:28.657Z,1.73
2022-10-22T02:40:31.434Z,1.74
2022-10-22T02:43:42.994Z,1.79
2022-10-22T02:46:44.847Z,1.82
2022-10-22T02:49:46.878Z,1.83
2022-10-22T02:52:48.907Z,1.86
2022-10-22T02:55:50.728Z,1.89
2022-10-22T02:58:52.470Z,1.93
2022-10-22T03:01:54.233Z,1.97
2022-10-22T03:04:56.014Z,1.95
2022-10-22T03:07:57.854Z,1.98
2022-10-22T03:10:59.700Z,2.03
2022-10-22T03:14:01.588Z,2.06
2022-10-22T03:17:03.648Z,2.10
2022-10-22T03:20:05.921Z,2.08
2022-10-22T03:23:09.896Z,2.09
2022-10-22T03:26:14.488Z,2.11
2022-10-22T03:29:16.768Z,2.16
2022-10-22T03:32:19.030Z,2.20
2022-10-22T03:35:20.993Z,2.20
2022-10-22T03:38:23.000Z,2.21
2022-10-22T03:41:24.795Z,2.24
2022-10-22T03:44:27.708Z,2.26
2022-10-22T03:47:29.522Z,2.27
2022-10-22T03:50:31.289Z,2.27
2022-10-22T03:53:33.236Z,2.31
2022-10-22T03:56:35.161Z,2.33
2022-10-22T03:59:44.974Z,2.38
2022-10-22T04:02:46.792Z,2.40
2022-10-22T04:05:48.596Z,2.40
2022-10-22T04:08:50.465Z,2.41
2022-10-22T04:11:52.310Z,2.41
2022-10-22T04:14:54.066Z,2.37
2022-10-22T04:17:56.275Z,2.41
2022-10-22T04:20:58.017Z,2.45
2022-10-22T04:23:59.864Z,2.50
2022-10-22T04:27:01.660Z,2.51
2022-10-22T04:30:05.037Z,2.58
2022-10-22T04:33:06.869Z,2.65
2022-10-22T04:36:14.638Z,2.70
2022-10-22T04:39:16.494Z,2.74
2022-10-22T04:42:18.898Z,2.78
2022-10-22T04:45:20.721Z,2.83
2022-10-22T04:48:22.465Z,2.88
2022-10-22T04:51:26.029Z,2.93
2022-10-22T04:54:32.048Z,2.97
2022-10-22T04:57:35.095Z,3.02
2022-10-22T05:00:36.917Z,3.03
2022-10-22T05:03:38.865Z,3.06
2022-10-22T05:06:41.030Z,3.13
2022-10-22T05:09:42.812Z,3.17
2022-10-22T05:12:44.533Z,3.23
2022-10-22T05:15:49.313Z,3.30
2022-10-22T05:18:51.252Z,3.33
2022-10-22T05:21:54.852Z,3.36
2022-10-22T05:24:56.641Z,3.41
2022-10-22T05:28:00.285Z,3.50
2022-10-22T05:31:03.004Z,3.56
2022-10-22T05:34:04.764Z,3.63
2022-10-22T05:37:06.581Z,3.70
2022-10-22T05:40:19.344Z,3.77
2022-10-22T05:43:29.078Z,3.82
2022-10-22T05:46:35.329Z,3.93
2022-10-22T05:49:37.139Z,3.99
2022-10-22T05:52:39.294Z,4.05
2022-10-22T05:55:41.468Z,4.13
2022-10-22T05:58:44.343Z,4.27
2022-10-22T06:01:46.259Z,4.43
2022-10-22T06:04:48.106Z,4.63
2022-10-22T06:07:49.912Z,4.80
2022-10-22T06:10:51.849Z,4.88
2022-10-22T06:13:53.662Z,5.01
2022-10-22T06:16:55.565Z,5.24
2022-10-22T06:19:57.350Z,5.46
2022-10-22T06:22:59.225Z,5.61
2022-10-22T06:26:01.739Z,5.69
2022-10-22T06:29:04.181Z,5.78
2022-10-22T06:32:06.209Z,5.99
2022-10-22T06:35:08.257Z,6.28
2022-10-22T06:38:10.121Z,6.53
2022-10-22T06:41:14.715Z,6.63
2022-10-22T06:44:18.646Z,6.77
2022-10-22T06:47:20.520Z,6.77
2022-10-22T06:50:22.501Z,6.89
2022-10-22T14:48:16.267Z,9.63
2022-10-22T14:51:20.035Z,9.68
2022-10-22T14:54:22.036Z,9.70
2022-10-22T14:57:23.907Z,9.70
2022-10-22T15:00:25.919Z,9.71
2022-10-22T15:03:27.913Z,9.69
2022-10-22T15:06:29.747Z,9.70
2022-10-22T15:09:31.762Z,9.70
2022-10-22T15:12:33.889Z,9.71
2022-10-22T15:15:39.577Z,9.69
2022-10-22T15:18:42.789Z,9.67
2022-10-22T15:21:44.662Z,9.68
2022-10-22T15:24:48.574Z,9.66
2022-10-22T15:27:51.824Z,9.64
2022-10-22T15:31:00.581Z,9.64
2022-10-22T15:34:02.439Z,9.63
2022-10-22T15:37:07.229Z,9.61
2022-10-22T15:40:09.346Z,9.59
2022-10-22T15:43:11.701Z,9.56
2022-10-22T15:46:16.456Z,9.55
2022-10-22T15:49:18.868Z,9.58
2022-10-22T15:52:23.748Z,9.56
2022-10-22T15:55:25.847Z,9.56
2022-10-22T15:58:28.721Z,9.59
2022-10-22T16:01:33.109Z,9.58
2022-10-22T16:04:35.047Z,9.56
2022-10-22T16:07:37.003Z,9.57
2022-10-22T16:10:44.764Z,9.56
2022-10-22T16:13:46.707Z,9.56
2022-10-22T16:16:51.222Z,9.57
2022-10-22T16:19:53.610Z,9.53
2022-10-22T16:22:55.525Z,9.56
2022-10-22T16:25:57.386Z,9.55
2022-10-22T16:28:59.395Z,9.52
2022-10-22T16:32:01.306Z,9.50
2022-10-22T16:35:03.218Z,9.51
2022-10-22T16:38:05.117Z,9.47
2022-10-22T16:41:21.513Z,9.45
2022-10-22T16:44:23.841Z,9.44
2022-10-22T16:47:25.838Z,9.38
2022-10-22T16:50:27.941Z,9.38
2022-10-22T16:53:29.830Z,9.38
2022-10-22T16:56:31.870Z,9.37
2022-10-22T16:59:33.754Z,9.36
2022-10-22T17:02:37.507Z,9.37
2022-10-22T17:05:39.375Z,9.34
2022-10-22T17:08:43.135Z,9.35
2022-10-22T17:11:45.112Z,9.37
2022-10-22T17:14:48.034Z,9.38
2022-10-22T17:17:53.748Z,9.34
2022-10-22T17:20:56.370Z,9.34
2022-10-22T17:23:59.524Z,9.35
2022-10-22T17:27:01.417Z,9.32
2022-10-22T17:30:05.017Z,9.32
2022-10-22T17:33:08.695Z,9.33
2022-10-22T17:36:15.271Z,9.31
2022-10-22T17:39:19.158Z,9.34
2022-10-22T17:42:21.712Z,9.35
2022-10-22T17:45:24.566Z,9.30
2022-10-22T17:48:27.858Z,9.30
2022-10-22T17:51:31.360Z,9.33
2022-10-22T17:54:35.483Z,9.33
2022-10-22T17:57:37.413Z,9.35
2022-10-22T18:00:39.818Z,9.33
2022-10-22T18:03:42.605Z,9.34
2022-10-22T18:06:47.086Z,9.35
2022-10-22T18:09:50.964Z,9.30
2022-10-22T18:12:52.921Z,9.27
2022-10-22T18:15:56.967Z,9.25
2022-10-22T18:18:58.865Z,9.22
2022-10-22T18:22:04.528Z,9.23
2022-10-22T18:25:06.727Z,9.25
2022-10-22T18:28:13.746Z,9.24
2022-10-22T18:31:21.997Z,9.27
2022-10-22T18:34:24.143Z,9.26
2022-10-22T18:37:26.117Z,9.21
2022-10-22T18:40:33.068Z,9.23
2022-10-22T18:43:38.718Z,9.25
2022-10-22T18:46:41.113Z,9.26
2022-10-22T18:49:44.391Z,9.27
2022-10-22T18:52:46.389Z,9.27
2022-10-22T18:55:48.290Z,9.29
2022-10-22T19:02:00.739Z,9.32
2022-10-22T19:06:07.575Z,9.34
2022-10-22T19:09:28.917Z,9.31
2022-10-22T19:12:30.683Z,9.32
2022-10-22T19:15:32.739Z,9.29
2022-10-22T19:18:36.797Z,9.33
2022-10-22T19:21:41.474Z,9.32
2022-10-22T19:24:45.886Z,9.32
2022-10-22T19:27:48.850Z,9.31
2022-10-22T19:30:50.582Z,9.24
2022-10-22T19:33:56.854Z,9.25
2022-10-22T19:36:58.677Z,9.21
2022-10-22T19:40:00.684Z,9.19
2022-10-22T19:43:02.477Z,9.21
2022-10-22T19:46:05.464Z,9.23
2022-10-22T19:49:07.280Z,9.20
2022-10-22T19:52:09.434Z,9.21
2022-10-22T19:55:11.492Z,9.15
2022-10-22T19:58:15.605Z,9.14
2022-10-22T20:01:19.105Z,9.18
2022-10-22T20:04:25.201Z,9.20
2022-10-22T20:07:29.115Z,9.11
2022-10-22T20:10:32.309Z,9.17
2022-10-22T20:16:44.785Z,9.17
2022-10-22T20:19:46.579Z,9.23
2022-10-22T20:22:48.297Z,9.19
2022-10-22T20:25:50.187Z,9.17
2022-10-22T20:28:52.258Z,9.18
2022-10-22T20:31:54.093Z,9.17
2022-10-22T20:34:55.894Z,9.17
2022-10-22T20:37:57.633Z,9.13
2022-10-22T20:41:00.605Z,9.19
2022-10-22T20:44:02.299Z,9.15
2022-10-22T20:47:04.198Z,9.19
2022-10-22T20:50:12.055Z,9.19
2022-10-22T20:53:16.889Z,9.23
2022-10-22T20:56:19.852Z,9.23
2022-10-22T20:59:21.588Z,9.25
2022-10-22T21:02:24.113Z,9.24
2022-10-22T21:05:26.078Z,9.22
2022-10-22T21:08:27.895Z,9.23
2022-10-22T21:11:29.658Z,9.25
2022-10-22T21:14:31.607Z,9.26
2022-10-22T21:17:33.336Z,9.21
2022-10-22T21:20:35.384Z,9.26
2022-10-22T21:23:37.986Z,9.24
2022-10-22T21:26:43.349Z,9.25
2022-10-22T21:29:45.143Z,9.27
2022-10-22T21:32:46.886Z,9.28
2022-10-22T21:35:51.285Z,9.23
2022-10-22T21:38:56.877Z,9.24
2022-10-22T21:41:58.778Z,9.23
2022-10-22T21:45:00.675Z,9.21
2022-10-22T21:48:02.541Z,9.22
2022-10-22T21:51:11.986Z,9.23
2022-10-22T21:54:13.808Z,9.21
2022-10-22T21:57:15.668Z,9.21
2022-10-22T22:00:22.034Z,9.21
2022-10-22T22:03:24.799Z,9.17
2022-10-22T22:06:32.019Z,9.17
2022-10-22T22:09:35.065Z,9.18
2022-10-22T22:12:36.891Z,9.18
2022-10-22T22:15:38.703Z,9.18
2022-10-22T22:18:41.901Z,9.18
2022-10-22T22:21:43.750Z,9.13
2022-10-22T22:24:45.492Z,9.16
2022-10-22T22:27:47.285Z,9.16
2022-10-22T22:30:49.128Z,9.15
2022-10-22T22:33:52.058Z,9.10
2022-10-22T22:36:53.732Z,9.04
2022-10-22T22:39:55.526Z,9.06
2022-10-22T22:42:57.304Z,9.05
2022-10-22T22:46:04.145Z,9.04
2022-10-22T22:49:06.471Z,9.02
2022-10-22T22:52:09.364Z,9.01
2022-10-22T22:55:10.995Z,9.00
2022-10-22T22:58:12.787Z,9.00
2022-10-22T23:01:33.147Z,8.99
2022-10-22T23:04:35.033Z,8.95
2022-10-22T23:07:36.882Z,8.95
2022-10-22T23:10:38.870Z,8.91
2022-10-22T23:13:42.330Z,8.83
2022-10-22T23:16:47.085Z,8.82
2022-10-22T23:19:48.880Z,8.77
2022-10-22T23:22:50.650Z,8.79
2022-10-22T23:25:55.858Z,8.79
2022-10-22T23:29:20.746Z,8.80
2022-10-22T23:32:22.519Z,8.79
2022-10-22T23:35:24.373Z,8.75
2022-10-22T23:38:26.264Z,8.74
2022-10-22T23:41:28.072Z,8.74
2022-10-22T23:44:29.906Z,8.76
2022-10-22T23:47:31.754Z,8.73
2022-10-22T23:50:36.618Z,8.72
2022-10-22T23:53:39.432Z,8.68
2022-10-22T23:56:41.564Z,8.67
2022-10-22T23:59:43.364Z,8.70
